Time;durP1;ratioP1;P1;durP2;ratioP2;P2;SDS_P1;SDS_P2;PMS_P1;PMS_P2;Temp;Humidity;BMP_temperature;BMP_pressure;BME280_temperature;BME280_humidity;BME280_pressure;Samples;Min_cycle;Max_cycle;Signal;HPM_P1;HPM_P2
2022/10/15 00:01:38;;;;;;;1.57;1.00;;;15.10;98.20;;;;;;5064435;28;20496;-77
2022/10/15 00:04:05;;;;;;;1.50;1.00;;;15.10;98.20;;;;;;5077230;28;21008;-79
2022/10/15 00:06:33;;;;;;;1.57;1.00;;;15.10;98.20;;;;;;5058269;28;20951;-78
2022/10/15 00:09:01;;;;;;;1.57;1.00;;;15.10;98.20;;;;;;5065166;28;20473;-78
2022/10/15 00:11:29;;;;;;;1.50;0.90;;;15.00;98.20;;;;;;5062587;28;20486;-77
2022/10/15 00:13:58;;;;;;;1.57;1.00;;;15.00;98.20;;;;;;5076634;28;20477;-77
2022/10/15 00:16:27;;;;;;;1.57;1.00;;;15.00;98.20;;;;;;5057811;28;20474;-77
2022/10/15 00:18:56;;;;;;;1.57;1.00;;;15.00;98.20;;;;;;5066274;28;20461;-78
2022/10/15 00:21:23;;;;;;;1.57;1.00;;;15.00;98.20;;;;;;5061223;28;20476;-77
2022/10/15 00:23:50;;;;;;;1.53;1.00;;;14.90;98.20;;;;;;5078815;28;20896;-78
2022/10/15 00:26:21;;;;;;;1.50;1.00;;;14.90;98.20;;;;;;5057604;28;20560;-77
2022/10/15 00:28:50;;;;;;;1.57;1.03;;;14.90;98.20;;;;;;5061447;28;20458;-78
2022/10/15 00:31:19;;;;;;;1.53;1.00;;;14.90;98.20;;;;;;5056704;28;20481;-78
2022/10/15 00:33:48;;;;;;;1.60;1.10;;;14.90;98.20;;;;;;5067202;28;20562;-77
2022/10/15 00:36:18;;;;;;;1.53;1.00;;;14.90;98.20;;;;;;5057702;28;21402;-77
2022/10/15 00:38:45;;;;;;;1.57;1.00;;;14.90;98.20;;;;;;5063115;28;20477;-77
2022/10/15 00:41:15;;;;;;;1.53;0.90;;;14.90;98.20;;;;;;5064583;28;20567;-78
2022/10/15 00:43:47;;;;;;;1.57;1.00;;;14.90;98.20;;;;;;5083779;28;20465;-76
2022/10/15 00:46:20;;;;;;;1.57;1.03;;;14.90;98.20;;;;;;5064180;28;20550;-78
2022/10/15 00:48:49;;;;;;;1.57;1.00;;;14.90;98.20;;;;;;5083187;28;20465;-76
2022/10/15 00:51:18;;;;;;;1.57;1.00;;;14.90;98.20;;;;;;5061109;28;20512;-77
2022/10/15 00:53:46;;;;;;;1.60;1.00;;;14.90;98.20;;;;;;5073622;28;20461;-78
2022/10/15 00:56:15;;;;;;;1.60;1.00;;;14.90;98.20;;;;;;5061541;28;20472;-78
2022/10/15 00:58:44;;;;;;;1.50;1.00;;;14.90;98.20;;;;;;5075178;28;20511;-76
2022/10/15 01:01:11;;;;;;;1.57;1.00;;;14.80;98.20;;;;;;5062705;28;20581;-78
2022/10/15 01:03:38;;;;;;;1.60;1.10;;;14.80;98.20;;;;;;5071860;28;20465;-77
2022/10/15 01:06:05;;;;;;;1.57;1.00;;;14.80;98.20;;;;;;5059462;28;20457;-76
2022/10/15 01:08:33;;;;;;;1.50;1.00;;;14.80;98.20;;;;;;5069820;28;20492;-77
2022/10/15 01:11:09;;;;;;;1.60;1.00;;;14.80;98.20;;;;;;5061889;28;20864;-78
2022/10/15 01:13:44;;;;;;;1.57;1.00;;;14.80;98.20;;;;;;5071004;28;20478;-77
2022/10/15 01:16:18;;;;;;;1.53;1.00;;;14.80;98.20;;;;;;5054954;28;20479;-78
2022/10/15 01:18:50;;;;;;;1.57;1.00;;;14.80;98.20;;;;;;5064806;28;20503;-78
2022/10/15 01:21:24;;;;;;;1.53;1.00;;;14.80;98.20;;;;;;5057613;28;20488;-78
2022/10/15 01:24:33;;;;;;;1.60;1.10;;;14.80;98.20;;;;;;5053601;28;20544;-78
2022/10/15 01:27:17;;;;;;;1.50;1.00;;;14.80;98.20;;;;;;5069520;28;20483;-77
2022/10/15 01:30:24;;;;;;;1.57;1.07;;;14.80;98.20;;;;;;5074541;28;20511;-76
2022/10/15 01:33:08;;;;;;;1.57;1.00;;;14.70;98.20;;;;;;5056034;28;20497;-77
2022/10/15 01:35:48;;;;;;;1.53;1.00;;;14.70;98.20;;;;;;5069539;28;20461;-77
2022/10/15 01:38:31;;;;;;;1.60;1.10;;;14.70;98.20;;;;;;5033927;28;20469;-78
2022/10/15 01:41:03;;;;;;;1.57;1.00;;;14.70;98.20;;;;;;5041964;28;20478;-77
2022/10/15 01:43:36;;;;;;;1.57;1.00;;;14.70;98.20;;;;;;5050809;28;20462;-77
2022/10/15 01:46:08;;;;;;;1.60;1.00;;;14.70;98.20;;;;;;5041810;28;20450;-77
2022/10/15 01:48:38;;;;;;;1.53;1.03;;;14.70;98.20;;;;;;5061582;28;20457;-78
2022/10/15 01:51:06;;;;;;;1.50;1.00;;;14.70;98.20;;;;;;5032891;28;20837;-78
2022/10/15 01:53:35;;;;;;;1.57;1.00;;;14.60;98.20;;;;;;5060790;28;20462;-78
2022/10/15 01:56:06;;;;;;;1.53;1.00;;;14.70;98.20;;;;;;5042635;28;21037;-78
2022/10/15 01:58:36;;;;;;;1.50;1.00;;;14.70;98.20;;;;;;5064534;28;20745;-78
2022/10/15 02:01:03;;;;;;;1.53;0.90;;;14.60;98.20;;;;;;5023725;28;20509;-78
2022/10/15 02:03:30;;;;;;;1.57;1.00;;;14.60;98.20;;;;;;5045753;28;20966;-78
2022/10/15 02:06:03;;;;;;;1.53;1.10;;;14.60;98.20;;;;;;5028360;28;20463;-77
2022/10/15 02:08:38;;;;;;;1.53;1.00;;;14.60;98.20;;;;;;5064322;28;20473;-78
2022/10/15 02:11:10;;;;;;;1.57;1.00;;;14.60;98.20;;;;;;5055473;28;20562;-78
2022/10/15 02:13:46;;;;;;;1.53;1.00;;;14.60;98.20;;;;;;5064737;28;20516;-78
2022/10/15 02:16:17;;;;;;;1.57;1.00;;;14.60;98.20;;;;;;5063104;28;20559;-78
2022/10/15 02:18:50;;;;;;;1.57;1.00;;;14.60;98.20;;;;;;5081046;28;20990;-78
2022/10/15 02:21:24;;;;;;;1.57;1.00;;;14.60;98.20;;;;;;5063318;28;20553;-78
2022/10/15 02:23:54;;;;;;;1.60;1.00;;;14.60;98.20;;;;;;5077672;28;20469;-78
2022/10/15 02:26:24;;;;;;;1.53;1.00;;;14.60;98.20;;;;;;5058794;28;20475;-79
2022/10/15 02:28:54;;;;;;;1.53;1.10;;;14.60;98.20;;;;;;5060947;28;21137;-78
2022/10/15 02:31:24;;;;;;;1.60;1.10;;;14.60;98.20;;;;;;5047652;28;20484;-78
2022/10/15 02:33:55;;;;;;;1.60;1.00;;;14.60;98.20;;;;;;5064514;28;20477;-78
2022/10/15 02:36:24;;;;;;;1.60;1.00;;;14.60;98.20;;;;;;5062511;28;21073;-78
2022/10/15 02:38:52;;;;;;;1.57;1.00;;;14.60;98.20;;;;;;5076185;28;20532;-80
2022/10/15 02:41:20;;;;;;;1.57;1.00;;;14.60;98.20;;;;;;5061799;28;20480;-78
2022/10/15 02:43:48;;;;;;;1.53;1.00;;;14.60;98.20;;;;;;5067934;28;20471;-76
2022/10/15 02:46:16;;;;;;;1.57;1.00;;;14.60;98.20;;;;;;5058871;28;21258;-76
2022/10/15 02:48:43;;;;;;;1.53;1.00;;;14.60;98.20;;;;;;5079747;28;20503;-76
2022/10/15 02:51:10;;;;;;;1.57;1.00;;;14.60;98.20;;;;;;5058632;28;20507;-76
2022/10/15 02:53:38;;;;;;;1.53;0.97;;;14.60;98.20;;;;;;5077363;28;20457;-76
2022/10/15 02:56:06;;;;;;;1.57;1.00;;;14.60;98.20;;;;;;5058734;28;20557;-76
2022/10/15 02:58:33;;;;;;;1.60;1.07;;;14.60;98.20;;;;;;5047947;28;20469;-76
2022/10/15 03:01:00;;;;;;;1.60;1.10;;;14.60;98.20;;;;;;5058102;28;20477;-76
2022/10/15 03:03:27;;;;;;;1.57;1.00;;;14.60;98.20;;;;;;5078446;28;20450;-75
2022/10/15 03:05:53;;;;;;;1.60;1.10;;;14.60;98.20;;;;;;5058231;28;20468;-76
2022/10/15 03:08:20;;;;;;;1.53;1.00;;;14.60;98.20;;;;;;5076052;28;21007;-76
2022/10/15 03:10:48;;;;;;;1.53;1.00;;;14.60;98.20;;;;;;5056678;28;20493;-76
2022/10/15 03:13:15;;;;;;;1.53;1.00;;;14.60;98.20;;;;;;5069376;28;20838;-76
2022/10/15 03:15:42;;;;;;;1.60;1.03;;;14.60;98.20;;;;;;5062373;28;20457;-76
2022/10/15 03:18:09;;;;;;;1.57;1.00;;;14.60;98.20;;;;;;5059378;28;20481;-77
2022/10/15 03:20:36;;;;;;;1.60;1.10;;;14.60;98.20;;;;;;5060947;28;20535;-76
2022/10/15 03:23:03;;;;;;;1.60;1.00;;;14.60;98.20;;;;;;5070789;28;20481;-76
2022/10/15 03:25:30;;;;;;;1.57;1.07;;;14.60;98.20;;;;;;5064780;28;21115;-76
2022/10/15 03:27:59;;;;;;;1.53;1.00;;;14.60;98.20;;;;;;5051476;28;20562;-76
2022/10/15 03:30:26;;;;;;;1.57;0.97;;;14.60;98.20;;;;;;5048102;28;20974;-76
2022/10/15 03:32:53;;;;;;;1.60;1.10;;;14.60;98.20;;;;;;5047838;28;20506;-75
2022/10/15 03:35:20;;;;;;;1.53;1.00;;;14.60;98.20;;;;;;5046950;28;20540;-76
2022/10/15 03:37:47;;;;;;;1.53;1.00;;;14.60;98.20;;;;;;5052966;28;20567;-76
2022/10/15 03:40:14;;;;;;;1.60;1.00;;;14.50;98.20;;;;;;5047811;28;20468;-76
2022/10/15 03:42:41;;;;;;;1.57;1.00;;;14.50;98.20;;;;;;5039256;28;20886;-76
2022/10/15 03:45:10;;;;;;;1.50;1.00;;;14.50;98.20;;;;;;5041561;28;20473;-76
2022/10/15 03:47:37;;;;;;;1.53;1.00;;;14.50;98.20;;;;;;5053578;28;20948;-76
2022/10/15 03:50:05;;;;;;;1.60;1.00;;;14.40;98.20;;;;;;5051016;28;20474;-76
2022/10/15 03:52:32;;;;;;;1.57;1.00;;;14.40;98.20;;;;;;5044546;28;20521;-76
2022/10/15 03:54:59;;;;;;;1.53;1.00;;;14.40;98.20;;;;;;5049051;28;20901;-76
2022/10/15 03:57:25;;;;;;;1.60;1.10;;;14.40;98.20;;;;;;5036903;28;20479;-76
2022/10/15 03:59:52;;;;;;;1.60;1.00;;;14.40;98.20;;;;;;5047203;28;20862;-76
2022/10/15 04:02:21;;;;;;;1.53;0.93;;;14.40;98.20;;;;;;5044198;28;20482;-77
2022/10/15 04:04:47;;;;;;;1.60;1.00;;;14.40;98.20;;;;;;5047971;28;20474;-76
2022/10/15 04:07:14;;;;;;;1.53;1.00;;;14.40;98.20;;;;;;5041714;28;20628;-76
2022/10/15 04:09:41;;;;;;;1.53;1.00;;;14.40;98.20;;;;;;5044278;28;20473;-76
2022/10/15 04:12:08;;;;;;;1.53;1.00;;;14.40;98.20;;;;;;5046861;28;20577;-76
2022/10/15 04:14:35;;;;;;;1.53;1.00;;;14.40;98.20;;;;;;5052340;28;20462;-76
2022/10/15 04:17:02;;;;;;;1.60;0.97;;;14.40;98.20;;;;;;5044365;28;20517;-76
2022/10/15 04:19:30;;;;;;;1.60;1.10;;;14.40;98.20;;;;;;5049128;28;20462;-76
2022/10/15 04:21:57;;;;;;;1.57;1.00;;;14.40;98.20;;;;;;5049907;28;20536;-75
2022/10/15 04:24:24;;;;;;;1.50;1.00;;;14.40;98.20;;;;;;5057123;28;20541;-76
2022/10/15 04:26:51;;;;;;;1.60;1.00;;;14.40;98.20;;;;;;5049431;28;20473;-76
2022/10/15 04:29:18;;;;;;;1.57;1.03;;;14.40;98.20;;;;;;5058608;28;20473;-77
2022/10/15 04:31:46;;;;;;;1.50;1.00;;;14.40;98.20;;;;;;5044433;28;20524;-76
2022/10/15 04:34:13;;;;;;;1.53;1.00;;;14.40;98.20;;;;;;5056832;28;20542;-77
2022/10/15 04:36:41;;;;;;;1.57;1.10;;;14.40;98.20;;;;;;5042645;28;20513;-76
2022/10/15 04:39:08;;;;;;;1.60;1.00;;;14.40;98.20;;;;;;5046507;28;20529;-76
2022/10/15 04:41:35;;;;;;;1.53;1.00;;;14.40;98.20;;;;;;5047027;28;20488;-76
2022/10/15 04:44:04;;;;;;;1.53;1.00;;;14.40;98.20;;;;;;5060133;28;20466;-77
2022/10/15 04:46:31;;;;;;;1.53;1.00;;;14.40;98.20;;;;;;5044288;28;21022;-77
2022/10/15 04:48:58;;;;;;;1.50;1.00;;;14.40;98.20;;;;;;5058893;28;20520;-76
2022/10/15 04:51:26;;;;;;;1.60;1.00;;;14.40;98.20;;;;;;5044829;28;20469;-76
2022/10/15 04:53:55;;;;;;;1.53;1.00;;;14.40;98.20;;;;;;5060984;28;20552;-77
2022/10/15 04:56:23;;;;;;;1.50;1.00;;;14.40;98.20;;;;;;5044677;28;20469;-77
2022/10/15 04:58:50;;;;;;;1.57;1.00;;;14.40;98.20;;;;;;5058419;28;20500;-76
2022/10/15 05:01:19;;;;;;;1.53;1.00;;;14.40;98.20;;;;;;5047576;28;21487;-76
2022/10/15 05:03:48;;;;;;;1.57;1.00;;;14.40;98.20;;;;;;5076142;28;20468;-76
2022/10/15 05:06:16;;;;;;;1.53;1.00;;;14.40;98.20;;;;;;5058414;28;21202;-76
2022/10/15 05:08:44;;;;;;;1.57;1.00;;;14.30;98.20;;;;;;5061655;28;20512;-76
2022/10/15 05:11:15;;;;;;;1.50;1.00;;;14.30;98.20;;;;;;5052505;28;20513;-77
2022/10/15 05:13:42;;;;;;;1.53;1.00;;;14.30;98.20;;;;;;5048974;28;20967;-76
2022/10/15 05:16:11;;;;;;;1.53;1.00;;;14.20;98.20;;;;;;5031761;28;21209;-77
2022/10/15 05:18:38;;;;;;;1.50;1.00;;;14.30;98.20;;;;;;5058074;28;21162;-77
2022/10/15 05:21:06;;;;;;;1.53;1.00;;;14.30;98.20;;;;;;5031561;28;21114;-76
2022/10/15 05:23:33;;;;;;;1.53;1.00;;;14.30;98.20;;;;;;5062463;28;20467;-77
2022/10/15 05:26:00;;;;;;;1.57;1.00;;;14.30;98.20;;;;;;5029866;28;20539;-77
2022/10/15 05:28:30;;;;;;;1.57;1.00;;;14.30;98.20;;;;;;5075342;28;20872;-76
2022/10/15 05:30:57;;;;;;;1.60;1.00;;;14.20;98.20;;;;;;5059637;28;20494;-77
2022/10/15 05:33:24;;;;;;;1.57;1.00;;;14.20;98.20;;;;;;5070340;28;20880;-76
2022/10/15 05:35:51;;;;;;;1.50;1.00;;;14.20;98.20;;;;;;5057590;28;20457;-76
2022/10/15 05:38:18;;;;;;;1.60;1.00;;;14.20;98.20;;;;;;5057584;28;20482;-76
2022/10/15 05:40:49;;;;;;;1.53;1.00;;;14.20;98.20;;;;;;5047397;28;20494;-76
2022/10/15 05:43:16;;;;;;;1.60;1.10;;;14.20;98.20;;;;;;5052934;28;20846;-77
2022/10/15 05:45:44;;;;;;;1.53;1.00;;;14.20;98.20;;;;;;5050061;28;20532;-77
2022/10/15 05:48:11;;;;;;;1.53;1.00;;;14.20;98.20;;;;;;5063167;28;20479;-77
2022/10/15 05:50:38;;;;;;;1.57;1.00;;;14.20;98.20;;;;;;5069936;28;20842;-77
2022/10/15 05:53:05;;;;;;;1.53;1.00;;;14.20;98.20;;;;;;5066780;28;20537;-77
2022/10/15 05:55:32;;;;;;;1.60;1.00;;;14.20;98.20;;;;;;5069344;28;20461;-77
2022/10/15 05:58:03;;;;;;;1.53;1.00;;;14.20;98.20;;;;;;5045149;28;20553;-77
2022/10/15 06:00:30;;;;;;;1.57;1.00;;;14.20;98.20;;;;;;5047739;28;20563;-77
2022/10/15 06:02:59;;;;;;;1.53;1.00;;;14.20;98.20;;;;;;5046473;28;20476;-77
2022/10/15 06:05:26;;;;;;;1.57;1.07;;;14.10;98.20;;;;;;5037940;28;20466;-77
2022/10/15 06:07:53;;;;;;;1.60;1.10;;;14.10;98.20;;;;;;5052719;28;20947;-77
2022/10/15 06:10:20;;;;;;;1.57;1.00;;;14.10;98.20;;;;;;5050504;28;20490;-77
2022/10/15 06:12:50;;;;;;;1.53;1.00;;;14.10;98.20;;;;;;5042609;28;21226;-77
2022/10/15 06:15:17;;;;;;;1.50;0.90;;;14.00;98.20;;;;;;5049066;28;20545;-77
2022/10/15 06:17:44;;;;;;;1.57;1.00;;;14.00;98.20;;;;;;5044158;28;21064;-77
2022/10/15 06:20:13;;;;;;;1.60;1.10;;;14.00;98.20;;;;;;5044722;28;20462;-76
2022/10/15 06:22:40;;;;;;;1.60;1.00;;;13.90;98.20;;;;;;5051463;28;20485;-77
2022/10/15 06:25:09;;;;;;;1.53;1.00;;;13.90;98.20;;;;;;5048843;28;20534;-77
2022/10/15 06:27:36;;;;;;;1.57;1.00;;;13.90;98.20;;;;;;5030064;28;20478;-77
2022/10/15 06:30:03;;;;;;;1.83;1.63;;;13.90;98.20;;;;;;5046354;28;20462;-77
2022/10/15 06:32:30;;;;;;;1.60;1.00;;;13.90;98.20;;;;;;5050305;28;20685;-77
2022/10/15 06:34:57;;;;;;;1.60;1.10;;;13.90;98.20;;;;;;5050959;28;20490;-77
2022/10/15 06:37:26;;;;;;;1.53;1.00;;;13.90;98.20;;;;;;5041517;28;20472;-77
2022/10/15 06:39:53;;;;;;;1.57;1.00;;;14.00;98.20;;;;;;5039939;28;20466;-77
2022/10/15 06:42:20;;;;;;;1.60;1.10;;;14.00;98.20;;;;;;5038074;28;20485;-78
2022/10/15 06:44:47;;;;;;;1.50;1.00;;;14.00;98.20;;;;;;5041812;28;21128;-77
2022/10/15 06:47:14;;;;;;;1.60;1.10;;;14.10;98.20;;;;;;5037067;28;21021;-77
2022/10/15 06:49:50;;;;;;;1.50;1.00;;;14.10;98.20;;;;;;5038785;28;20467;-77
2022/10/15 06:52:18;;;;;;;1.50;1.00;;;14.10;98.20;;;;;;5040880;28;20488;-77
2022/10/15 06:54:46;;;;;;;1.57;1.03;;;14.20;98.20;;;;;;5044082;28;21335;-77
2022/10/15 06:57:13;;;;;;;1.57;1.00;;;14.20;98.20;;;;;;5040650;28;20478;-77
2022/10/15 06:59:40;;;;;;;1.60;1.10;;;14.30;98.20;;;;;;5046719;28;20491;-77
2022/10/15 07:02:09;;;;;;;1.50;1.00;;;14.30;98.20;;;;;;5042919;28;20496;-77
2022/10/15 07:04:36;;;;;;;1.53;1.00;;;14.30;98.20;;;;;;5042092;28;20465;-77
2022/10/15 07:07:03;;;;;;;1.50;1.00;;;14.40;98.20;;;;;;5037904;28;20550;-77
2022/10/15 07:09:31;;;;;;;1.53;1.00;;;14.40;98.20;;;;;;5045721;28;20513;-76
2022/10/15 07:11:59;;;;;;;1.57;1.00;;;14.40;98.20;;;;;;5041678;28;20576;-77
2022/10/15 07:14:26;;;;;;;1.57;1.00;;;14.40;98.20;;;;;;5037532;28;20464;-77
2022/10/15 07:16:53;;;;;;;1.57;1.00;;;14.40;98.20;;;;;;5032458;28;20485;-77
2022/10/15 07:19:21;;;;;;;1.57;1.00;;;14.50;98.20;;;;;;5041213;28;20491;-77
2022/10/15 07:21:48;;;;;;;1.60;1.00;;;14.50;98.20;;;;;;5036774;28;20925;-77
2022/10/15 07:24:15;;;;;;;1.53;1.00;;;14.60;98.20;;;;;;5051940;28;20464;-77
2022/10/15 07:26:43;;;;;;;1.60;1.10;;;14.70;98.20;;;;;;5039993;28;20481;-77
2022/10/15 07:29:11;;;;;;;1.60;1.00;;;14.70;98.20;;;;;;5051722;28;20506;-78
2022/10/15 07:31:38;;;;;;;1.53;1.00;;;14.80;98.20;;;;;;5035355;28;20880;-77
2022/10/15 07:34:06;;;;;;;1.57;1.00;;;14.80;98.20;;;;;;5050722;28;20463;-77
2022/10/15 07:36:34;;;;;;;1.50;1.00;;;14.90;98.20;;;;;;5034681;28;20481;-77
2022/10/15 07:39:01;;;;;;;1.53;1.00;;;14.90;98.20;;;;;;5050492;28;20485;-77
2022/10/15 07:41:28;;;;;;;1.53;1.00;;;15.00;98.20;;;;;;5031940;28;21100;-77
2022/10/15 07:43:55;;;;;;;1.50;0.90;;;15.00;98.20;;;;;;5045688;28;20981;-77
2022/10/15 07:46:23;;;;;;;1.60;1.27;;;15.10;98.20;;;;;;5030182;28;20496;-77
2022/10/15 07:48:51;;;;;;;1.60;1.00;;;15.20;98.20;;;;;;5053393;28;20627;-77
2022/10/15 07:51:18;;;;;;;1.60;1.00;;;15.30;98.20;;;;;;5040021;28;20507;-77
2022/10/15 07:53:46;;;;;;;1.53;0.90;;;15.30;98.20;;;;;;5056511;28;20463;-77
2022/10/15 07:56:15;;;;;;;1.60;1.00;;;15.40;98.20;;;;;;5036333;28;20480;-77
2022/10/15 07:58:42;;;;;;;1.57;1.00;;;15.40;98.20;;;;;;5050765;28;20491;-77
2022/10/15 08:01:10;;;;;;;1.60;1.00;;;15.50;98.20;;;;;;5038171;28;20469;-77
2022/10/15 08:03:39;;;;;;;1.60;1.00;;;15.50;98.20;;;;;;5048177;28;20455;-77
2022/10/15 08:06:08;;;;;;;1.60;1.10;;;15.50;98.20;;;;;;5030292;28;20487;-76
2022/10/15 08:08:36;;;;;;;1.60;1.10;;;15.60;98.20;;;;;;5048208;28;20527;-76
2022/10/15 08:11:06;;;;;;;1.60;1.00;;;15.60;98.20;;;;;;5029400;28;20506;-76
2022/10/15 08:13:33;;;;;;;1.60;1.00;;;15.70;98.20;;;;;;5053994;28;20473;-77
2022/10/15 08:16:00;;;;;;;1.60;1.00;;;15.70;98.20;;;;;;5028932;28;20466;-77
2022/10/15 08:18:28;;;;;;;1.60;1.00;;;15.80;98.20;;;;;;5046670;28;21032;-77
2022/10/15 08:21:00;;;;;;;1.60;1.00;;;15.80;98.20;;;;;;5026856;28;20505;-76
2022/10/15 08:23:28;;;;;;;1.60;1.00;;;15.90;98.20;;;;;;5043199;28;20458;-77
2022/10/15 08:25:57;;;;;;;1.60;1.00;;;15.90;98.20;;;;;;5024785;28;20469;-76
2022/10/15 08:28:25;;;;;;;1.60;1.00;;;16.00;98.20;;;;;;5052587;28;20499;-78
2022/10/15 08:30:53;;;;;;;1.60;1.00;;;16.00;98.20;;;;;;5026492;28;20476;-76
2022/10/15 08:33:20;;;;;;;1.60;1.00;;;16.10;98.20;;;;;;5051896;28;20477;-77
2022/10/15 08:35:48;;;;;;;1.60;1.00;;;16.20;98.20;;;;;;5038028;28;20966;-76
2022/10/15 08:38:18;;;;;;;1.60;0.90;;;16.20;98.20;;;;;;5035349;28;20919;-77
2022/10/15 08:40:48;;;;;;;1.50;0.97;;;16.40;98.20;;;;;;5045473;28;20470;-76
2022/10/15 08:43:23;;;;;;;1.60;0.90;;;16.40;98.20;;;;;;5031953;28;21063;-76
2022/10/15 08:45:57;;;;;;;1.60;1.00;;;16.50;98.20;;;;;;5033556;28;20863;-76
2022/10/15 08:48:30;;;;;;;1.60;0.93;;;16.60;98.20;;;;;;5058129;28;20469;-76
2022/10/15 08:51:04;;;;;;;1.60;1.00;;;16.60;98.20;;;;;;5033452;28;20474;-76
2022/10/15 08:53:38;;;;;;;1.60;1.00;;;16.60;98.20;;;;;;5054660;28;20988;-76
2022/10/15 08:56:15;;;;;;;1.60;1.00;;;16.70;98.20;;;;;;5035836;28;20953;-76
2022/10/15 08:58:49;;;;;;;1.57;0.90;;;16.70;98.20;;;;;;5049417;28;20517;-76
2022/10/15 09:01:24;;;;;;;1.60;0.90;;;16.80;98.20;;;;;;5034567;28;20554;-77
2022/10/15 09:04:06;;;;;;;1.60;1.00;;;16.80;98.20;;;;;;5040515;28;20540;-77
2022/10/15 09:06:37;;;;;;;1.60;1.00;;;16.90;98.20;;;;;;5036596;28;20486;-76
2022/10/15 09:09:15;;;;;;;1.60;1.00;;;17.00;98.20;;;;;;5042127;28;20508;-77
2022/10/15 09:11:52;;;;;;;1.60;0.97;;;17.00;98.20;;;;;;5038907;28;20504;-77
2022/10/15 09:14:24;;;;;;;1.50;0.93;;;17.10;98.20;;;;;;5051442;28;20469;-76
2022/10/15 09:16:52;;;;;;;1.60;1.00;;;17.10;98.20;;;;;;5042339;28;20520;-77
2022/10/15 09:19:21;;;;;;;1.60;1.00;;;17.10;98.20;;;;;;5047983;28;20490;-76
2022/10/15 09:21:52;;;;;;;1.60;0.90;;;17.10;98.20;;;;;;5043274;28;20489;-78
2022/10/15 09:24:23;;;;;;;1.60;0.90;;;17.10;98.20;;;;;;5050031;28;20493;-77
2022/10/15 09:27:03;;;;;;;1.57;1.00;;;17.10;98.20;;;;;;5035316;28;20517;-77
2022/10/15 09:29:35;;;;;;;1.60;0.97;;;17.20;98.20;;;;;;5040457;28;21273;-77
2022/10/15 09:32:12;;;;;;;1.60;1.00;;;17.20;98.20;;;;;;5046975;28;20519;-77
2022/10/15 09:34:45;;;;;;;1.57;0.90;;;17.10;98.20;;;;;;5070170;28;20457;-77
2022/10/15 09:37:18;;;;;;;1.60;0.90;;;17.20;98.20;;;;;;5044602;28;20913;-79
2022/10/15 09:40:21;;;;;;;1.60;1.10;;;17.30;98.20;;;;;;5048382;28;21079;-76
2022/10/15 09:42:51;;;;;;;1.60;1.00;;;17.50;98.20;;;;;;5055133;28;20564;-79
2022/10/15 09:45:18;;;;;;;1.60;1.00;;;17.50;98.20;;;;;;5049692;28;20470;-78
2022/10/15 09:47:45;;;;;;;1.57;0.90;;;17.60;98.20;;;;;;5056312;28;20481;-77
2022/10/15 09:50:14;;;;;;;1.60;1.10;;;17.70;98.20;;;;;;5051452;28;20462;-77
2022/10/15 09:53:03;;;;;;;1.57;0.90;;;17.70;98.20;;;;;;5055312;28;20538;-77
2022/10/15 09:55:42;;;;;;;1.60;0.97;;;17.80;98.20;;;;;;5050192;28;20477;-78
2022/10/15 09:58:14;;;;;;;1.60;1.00;;;18.00;98.20;;;;;;5064850;28;20498;-77
2022/10/15 10:00:57;;;;;;;1.60;1.00;;;18.20;98.20;;;;;;5066651;28;20461;-76
2022/10/15 10:03:27;;;;;;;1.60;0.90;;;18.40;98.20;;;;;;5055323;28;20493;-77
2022/10/15 10:06:02;;;;;;;1.60;1.00;;;18.50;98.20;;;;;;5047237;28;20966;-77
2022/10/15 10:08:35;;;;;;;1.60;0.90;;;18.50;98.20;;;;;;5064556;28;20906;-76
2022/10/15 10:11:07;;;;;;;1.70;1.20;;;18.50;98.20;;;;;;5053782;28;20482;-77
2022/10/15 10:13:37;;;;;;;1.57;0.90;;;18.40;98.20;;;;;;5058003;28;20469;-77
2022/10/15 10:16:07;;;;;;;1.53;0.90;;;18.30;98.20;;;;;;5058567;28;21188;-80
2022/10/15 10:18:36;;;;;;;2.13;1.47;;;18.20;98.20;;;;;;5078512;28;20575;-78
2022/10/15 10:21:06;;;;;;;1.57;1.00;;;18.10;98.20;;;;;;5058146;28;20481;-79
2022/10/15 10:23:35;;;;;;;1.53;0.90;;;18.10;98.20;;;;;;5076693;28;20501;-78
2022/10/15 10:26:12;;;;;;;1.57;0.93;;;18.10;98.20;;;;;;5052611;28;20458;-77
2022/10/15 10:29:01;;;;;;;1.53;0.90;;;18.10;98.20;;;;;;5051806;28;20480;-77
2022/10/15 10:31:44;;;;;;;1.53;0.90;;;18.10;98.20;;;;;;5031012;28;20482;-78
2022/10/15 10:37:06;;;;;;;1.50;0.90;;;18.10;98.20;;;;;;5049359;28;20508;-78
2022/10/15 10:39:35;;;;;;;1.57;0.90;;;18.10;98.20;;;;;;5065987;28;20550;-77
2022/10/15 10:42:06;;;;;;;1.60;1.00;;;18.20;98.20;;;;;;5050588;28;21244;-77
2022/10/15 10:44:35;;;;;;;1.50;0.90;;;18.10;98.20;;;;;;5062799;28;20466;-77
2022/10/15 10:47:14;;;;;;;1.57;1.00;;;18.10;98.20;;;;;;5061168;28;20535;-77
2022/10/15 10:49:43;;;;;;;1.50;0.90;;;18.10;98.20;;;;;;5070800;28;20469;-77
2022/10/15 10:52:22;;;;;;;1.60;0.90;;;18.10;98.20;;;;;;5048953;28;20493;-77
2022/10/15 10:54:57;;;;;;;1.57;0.97;;;18.10;98.20;;;;;;5064209;28;20465;-77
2022/10/15 10:57:35;;;;;;;1.60;1.07;;;18.20;98.20;;;;;;5058641;28;20480;-77
2022/10/15 11:00:04;;;;;;;1.50;0.90;;;18.20;98.20;;;;;;5065667;28;20496;-77
2022/10/15 11:02:34;;;;;;;1.50;0.90;;;18.20;98.20;;;;;;5047102;28;20561;-77
2022/10/15 11:05:02;;;;;;;1.60;1.00;;;18.20;98.20;;;;;;5061262;28;20546;-78
2022/10/15 11:07:37;;;;;;;1.50;0.90;;;18.20;98.20;;;;;;5065644;28;20483;-77
2022/10/15 11:10:10;;;;;;;1.57;0.90;;;18.20;98.20;;;;;;5063111;28;20456;-76
2022/10/15 11:12:58;;;;;;;1.50;0.90;;;18.20;98.20;;;;;;5046568;28;21381;-76
2022/10/15 11:15:37;;;;;;;1.57;1.00;;;18.30;98.20;;;;;;5062346;28;21364;-77
2022/10/15 11:18:19;;;;;;;1.53;0.90;;;18.40;98.20;;;;;;5062457;28;20512;-77
2022/10/15 11:20:55;;;;;;;1.60;0.90;;;18.50;98.20;;;;;;5067614;28;20491;-77
2022/10/15 11:23:38;;;;;;;1.60;1.00;;;18.50;98.20;;;;;;5034274;28;20954;-77
2022/10/15 11:26:21;;;;;;;1.53;0.90;;;18.60;98.20;;;;;;5038716;28;20469;-77
2022/10/15 11:29:00;;;;;;;1.53;1.00;;;18.60;98.20;;;;;;5055570;28;20458;-76
2022/10/15 11:31:37;;;;;;;1.57;0.90;;;18.60;98.20;;;;;;5035588;28;20477;-76
2022/10/15 11:34:22;;;;;;;1.53;0.93;;;18.60;98.20;;;;;;5054394;28;20775;-78
2022/10/15 11:37:07;;;;;;;1.57;0.90;;;18.70;98.20;;;;;;5037973;28;20481;-75
2022/10/15 11:39:50;;;;;;;1.50;0.90;;;18.70;98.20;;;;;;5049114;28;20486;-78
2022/10/15 11:42:23;;;;;;;1.60;0.90;;;18.70;98.20;;;;;;5025486;28;21090;-77
2022/10/15 11:45:10;;;;;;;1.57;0.93;;;18.70;98.20;;;;;;5042093;28;20556;-75
2022/10/15 11:47:48;;;;;;;1.57;0.90;;;18.80;98.20;;;;;;5027245;28;20485;-74
2022/10/15 11:50:27;;;;;;;1.57;0.90;;;18.80;98.20;;;;;;5039165;28;21079;-75
2022/10/15 11:53:22;;;;;;;1.53;0.90;;;18.80;98.20;;;;;;5027106;28;20585;-76
2022/10/15 11:55:54;;;;;;;1.53;0.90;;;18.80;98.20;;;;;;5026732;28;21050;-75
2022/10/15 11:58:29;;;;;;;1.57;0.90;;;18.90;98.20;;;;;;5038295;28;20478;-76
2022/10/15 12:01:03;;;;;;;1.70;1.30;;;18.90;98.20;;;;;;5031232;28;20497;-75
2022/10/15 12:03:39;;;;;;;1.57;0.90;;;19.00;98.20;;;;;;5040585;28;20458;-75
2022/10/15 12:06:09;;;;;;;1.57;0.90;;;19.00;98.20;;;;;;5032176;28;20942;-76
2022/10/15 12:08:39;;;;;;;1.53;0.90;;;19.00;98.20;;;;;;5054376;28;20555;-74
2022/10/15 12:11:19;;;;;;;1.53;0.90;;;19.10;98.20;;;;;;5032291;28;20564;-76
2022/10/15 12:13:54;;;;;;;1.57;0.90;;;19.10;98.20;;;;;;5050958;28;20481;-76
2022/10/15 12:16:30;;;;;;;1.53;0.90;;;19.20;98.20;;;;;;5033559;28;20548;-76
2022/10/15 12:19:12;;;;;;;1.57;0.90;;;19.30;98.20;;;;;;5045428;28;20520;-76
2022/10/15 12:21:44;;;;;;;1.57;0.97;;;19.40;98.20;;;;;;5032319;28;21179;-76
2022/10/15 12:24:55;;;;;;;1.57;0.90;;;19.50;98.20;;;;;;5038240;28;20916;-77
2022/10/15 12:27:25;;;;;;;1.53;0.90;;;19.60;98.20;;;;;;4950555;28;21069;-76
2022/10/15 12:30:11;;;;;;;1.60;0.97;;;19.80;98.20;;;;;;5038945;28;20534;-77
2022/10/15 12:32:42;;;;;;;1.57;0.90;;;19.90;98.20;;;;;;5058970;28;20488;-76
2022/10/15 12:35:32;;;;;;;1.60;0.90;;;20.00;98.20;;;;;;5059035;28;20457;-76
2022/10/15 12:38:19;;;;;;;1.60;0.90;;;20.10;98.20;;;;;;5062207;28;20492;-76
2022/10/15 12:40:47;;;;;;;1.60;1.00;;;20.20;98.20;;;;;;5062190;28;20578;-77
2022/10/15 12:43:16;;;;;;;1.57;0.90;;;20.20;98.20;;;;;;5072881;28;20476;-78
2022/10/15 12:45:52;;;;;;;1.60;0.90;;;20.20;98.20;;;;;;5066542;28;20461;-77
2022/10/15 12:48:29;;;;;;;1.53;0.97;;;20.30;98.20;;;;;;5033715;28;20492;-76
2022/10/15 12:51:39;;;;;;;1.50;0.90;;;20.30;98.20;;;;;;5035130;28;21054;-77
2022/10/15 12:54:36;;;;;;;1.57;0.90;;;20.20;98.20;;;;;;5045872;28;20472;-77
2022/10/15 12:57:19;;;;;;;1.60;0.90;;;20.30;98.20;;;;;;5033753;28;21412;-77
2022/10/15 12:59:57;;;;;;;1.53;0.90;;;20.30;98.20;;;;;;5039880;28;20493;-77
2022/10/15 13:02:38;;;;;;;1.53;0.90;;;20.30;98.20;;;;;;5040542;28;20511;-78
2022/10/15 13:05:23;;;;;;;1.60;1.00;;;20.30;98.20;;;;;;5042543;28;20523;-77
2022/10/15 13:07:51;;;;;;;1.53;0.90;;;20.40;98.20;;;;;;5035666;28;20480;-77
2022/10/15 13:10:22;;;;;;;1.50;0.90;;;20.40;98.20;;;;;;5038342;28;20466;-77
2022/10/15 13:12:54;;;;;;;1.60;1.00;;;20.40;98.20;;;;;;5036251;28;20478;-78